Amica — V4JE — position and weather

sailwx.info

Track history (hours):
 
Tides and Currents Weather Stations Pressure Air Temp Water Temp Dewpoint Dewpoint Depression Visibility Wind Speed Wind Dir Waves Ship Positions

Amica

Last reported at 2017-Dec-09 04:22 UTC. Time now 2017-Dec-13 14:38 UTC.
Position N 25°45' W 080°08'.

Length 34 m; draft 2.6 m.

Type: Pleasure craft. MMSI: 341809000.

Date/timePositionNaut miles runAvg speedWind from/ knotsBaromVisibWave heightAir tempDewpointWater temp
2017-Dec-09 04:22N 25°45' W 080°08'2 4.9
2017-Dec-09 04:01N 25°46' W 080°10'3 6.9
2017-Dec-09 03:30N 25°43' W 080°12'3 6.6
2017-Dec-09 03:01N 25°41' W 080°15'0 0.9
2017-Dec-09 02:30N 25°42' W 080°15'0 0.0
2017-Dec-09 02:01N 25°42' W 080°15'0 0.0
2017-Dec-09 01:31N 25°42' W 080°15'0 0.0
2017-Dec-09 01:01N 25°42' W 080°15'0 0.0
2017-Dec-09 00:31N 25°42' W 080°15'0 0.0
2017-Dec-09 00:01N 25°42' W 080°15'0 0.8
2017-Dec-08 23:30N 25°41' W 080°15'3 6.1
2017-Dec-08 23:00N 25°43' W 080°12'3 5.2
2017-Dec-08 22:30N 25°45' W 080°11'2 4.0
2017-Dec-08 22:01N 25°46' W 080°09'1 1.0
2017-Dec-08 21:31N 25°45' W 080°08'0 0.0
2017-Dec-08 21:01N 25°45' W 080°08'  
Track history (hours):
 
Tides and Currents Weather Stations Pressure Air Temp Water Temp Dewpoint Dewpoint Depression Visibility Wind Speed Wind Dir Waves Ship Positions

Amica

Last reported at 2017-Dec-09 04:22 UTC. Time now 2017-Dec-13 14:38 UTC.
Position N 25°45' W 080°08'.

Length 34 m; draft 2.6 m.

Type: Pleasure craft. MMSI: 341809000.

Date/timePositionNaut miles runAvg speedWind from/ knotsBaromVisibWave heightAir tempDewpointWater temp
2017-Dec-09 04:22N 25°45' W 080°08'2 4.9
2017-Dec-09 04:01N 25°46' W 080°10'3 6.9
2017-Dec-09 03:30N 25°43' W 080°12'3 6.6
2017-Dec-09 03:01N 25°41' W 080°15'0 0.9
2017-Dec-09 02:30N 25°42' W 080°15'0 0.0
2017-Dec-09 02:01N 25°42' W 080°15'0 0.0
2017-Dec-09 01:31N 25°42' W 080°15'0 0.0
2017-Dec-09 01:01N 25°42' W 080°15'0 0.0
2017-Dec-09 00:31N 25°42' W 080°15'0 0.0
2017-Dec-09 00:01N 25°42' W 080°15'0 0.8
2017-Dec-08 23:30N 25°41' W 080°15'3 6.1
2017-Dec-08 23:00N 25°43' W 080°12'3 5.2
2017-Dec-08 22:30N 25°45' W 080°11'2 4.0
2017-Dec-08 22:01N 25°46' W 080°09'1 1.0
2017-Dec-08 21:31N 25°45' W 080°08'0 0.0
2017-Dec-08 21:01N 25°45' W 080°08'  

Dump ship's entire track history